Time;durP1;ratioP1;P1;durP2;ratioP2;P2;SDS_P1;SDS_P2;PMS_P1;PMS_P2;Temp;Humidity;BMP_temperature;BMP_pressure;BME280_temperature;BME280_humidity;BME280_pressure;Samples;Min_cycle;Max_cycle;Signal;HPM_P1;HPM_P2
2022/03/23 00:01:21;;;;;;;20.20;13.93;;;;;;;3.84;84.56;99407.47;5067525;28;20244;-73
2022/03/23 00:03:49;;;;;;;18.60;12.20;;;;;;;3.77;84.51;99405.91;5063653;28;20303;-72
2022/03/23 00:06:17;;;;;;;20.33;12.03;;;;;;;3.69;85.15;99418.28;5065685;28;20222;-72
2022/03/23 00:08:44;;;;;;;16.27;12.03;;;;;;;3.61;85.33;99408.88;5067799;28;20234;-72
2022/03/23 00:11:10;;;;;;;15.87;11.10;;;;;;;3.55;84.51;99409.84;5067325;28;20222;-72
2022/03/23 00:13:37;;;;;;;14.17;10.97;;;;;;;3.57;83.64;99408.09;5064080;28;20631;-73
2022/03/23 00:16:05;;;;;;;14.47;11.03;;;;;;;3.56;84.49;99415.97;5066243;28;20236;-73
2022/03/23 00:18:32;;;;;;;13.90;10.87;;;;;;;3.58;83.94;99415.03;5067722;28;20212;-73
2022/03/23 00:21:00;;;;;;;14.57;11.03;;;;;;;3.56;84.43;99405.50;5067638;28;20629;-73
2022/03/23 00:23:26;;;;;;;14.17;10.83;;;;;;;3.58;83.99;99407.19;5061183;28;20675;-72
2022/03/23 00:25:53;;;;;;;15.27;11.93;;;;;;;3.62;82.69;99405.38;5062014;28;20224;-72
2022/03/23 00:28:20;;;;;;;14.63;10.77;;;;;;;3.63;81.75;99413.19;5067344;28;20242;-72
2022/03/23 00:30:48;;;;;;;14.33;10.50;;;;;;;3.60;81.58;99413.25;5065582;28;20216;-72
2022/03/23 00:33:15;;;;;;;14.57;11.87;;;;;;;3.50;82.13;99411.72;5060912;28;20699;-74
2022/03/23 00:35:43;;;;;;;14.27;10.47;;;;;;;3.44;82.17;99405.75;5065869;28;20220;-72
2022/03/23 00:38:11;;;;;;;14.23;10.37;;;;;;;3.42;82.18;99408.41;5067297;28;20219;-73
2022/03/23 00:40:38;;;;;;;12.20;10.17;;;;;;;3.44;80.66;99409.25;5067101;28;20212;-73
2022/03/23 00:43:04;;;;;;;12.70;10.13;;;;;;;3.41;80.13;99411.91;5061035;28;20222;-73
2022/03/23 00:45:31;;;;;;;13.33;10.33;;;;;;;3.35;80.64;99413.78;5065753;28;20217;-74
2022/03/23 00:47:58;;;;;;;12.20;9.77;;;;;;;3.25;81.02;99410.47;5067246;28;20239;-73
2022/03/23 00:50:25;;;;;;;14.77;9.73;;;;;;;3.28;81.10;99409.56;5067311;28;20211;-73
2022/03/23 00:52:51;;;;;;;13.50;10.20;;;;;;;3.28;81.30;99410.44;5063944;28;20212;-73
2022/03/23 00:55:20;;;;;;;15.80;11.07;;;;;;;3.29;82.16;99412.16;5064755;28;20224;-73
2022/03/23 00:57:46;;;;;;;17.77;12.33;;;;;;;3.34;82.37;99406.84;5065631;28;20326;-72
2022/03/23 01:00:18;;;;;;;17.67;13.10;;;;;;;3.39;82.46;99408.47;5066915;28;20211;-72
2022/03/23 01:02:46;;;;;;;17.53;12.30;;;;;;;3.42;82.04;99408.41;5060704;28;20220;-74
2022/03/23 01:05:14;;;;;;;18.03;12.40;;;;;;;3.45;81.79;99403.13;5065317;28;20649;-73
2022/03/23 01:07:41;;;;;;;18.07;13.40;;;;;;;3.39;83.99;99403.25;5066781;28;20235;-73
2022/03/23 01:10:11;;;;;;;17.77;13.03;;;;;;;3.42;84.05;99403.16;5067154;28;20211;-73
2022/03/23 01:12:39;;;;;;;17.83;13.43;;;;;;;3.40;84.57;99398.88;5061194;28;20216;-73
2022/03/23 01:15:08;;;;;;;18.93;13.67;;;;;;;3.36;83.64;99400.69;5065989;28;20264;-73
2022/03/23 01:17:34;;;;;;;19.03;13.50;;;;;;;3.35;84.03;99398.97;5067075;28;20215;-73
2022/03/23 01:20:01;;;;;;;17.83;13.40;;;;;;;3.32;84.92;99396.44;5060586;28;20205;-73
2022/03/23 01:22:27;;;;;;;21.13;14.00;;;;;;;3.29;85.52;99396.47;5061444;28;20238;-73
2022/03/23 01:24:54;;;;;;;18.93;13.37;;;;;;;3.37;85.53;99399.78;5065886;28;20221;-72
2022/03/23 01:27:20;;;;;;;20.53;13.97;;;;;;;3.41;85.45;99390.13;5066938;28;20223;-72
2022/03/23 01:29:48;;;;;;;20.87;14.43;;;;;;;3.43;85.23;99389.22;5066813;28;20693;-71
2022/03/23 01:32:15;;;;;;;22.60;14.23;;;;;;;3.34;86.35;99394.63;5060320;28;20220;-72
2022/03/23 01:34:41;;;;;;;21.23;14.13;;;;;;;3.41;85.77;99396.22;5065226;28;20223;-72
2022/03/23 01:37:08;;;;;;;19.87;12.97;;;;;;;3.44;84.98;99396.19;5066604;28;20226;-72
2022/03/23 01:39:34;;;;;;;17.23;12.67;;;;;;;3.43;83.10;99398.81;5065240;28;20215;-72
2022/03/23 01:42:01;;;;;;;18.17;12.77;;;;;;;3.42;81.66;99392.72;5062887;28;20209;-72
2022/03/23 01:44:27;;;;;;;17.03;11.70;;;;;;;3.37;82.47;99391.94;5064577;28;20215;-72
2022/03/23 01:47:06;;;;;;;19.47;13.50;;;;;;;3.29;83.39;99391.25;5061250;28;20573;-71
2022/03/23 01:49:33;;;;;;;19.27;13.33;;;;;;;3.32;84.53;99390.34;5063516;28;20244;-72
2022/03/23 01:52:00;;;;;;;21.70;13.63;;;;;;;3.24;85.20;99387.88;5066530;28;20216;-72
2022/03/23 01:54:27;;;;;;;17.80;12.50;;;;;;;3.20;85.96;99378.41;5069429;28;20216;-72
2022/03/23 01:56:56;;;;;;;17.87;13.03;;;;;;;3.23;86.13;99388.75;5070279;28;20211;-72
2022/03/23 01:59:23;;;;;;;20.73;13.60;;;;;;;3.23;85.85;99391.38;5060520;28;20209;-72
2022/03/23 02:01:49;;;;;;;18.60;13.13;;;;;;;3.20;85.66;99388.84;5057575;28;20249;-73
2022/03/23 02:04:18;;;;;;;18.53;11.80;;;;;;;3.10;84.55;99400.34;5059436;28;20214;-73
2022/03/23 02:06:48;;;;;;;18.57;11.23;;;;;;;2.94;84.67;99388.47;5058011;28;20323;-73
2022/03/23 02:09:14;;;;;;;15.53;11.90;;;;;;;2.85;83.75;99390.41;5057159;28;20709;-73
2022/03/23 02:11:42;;;;;;;19.47;12.23;;;;;;;2.76;83.59;99388.81;5057553;28;20208;-73
2022/03/23 02:14:09;;;;;;;17.60;11.67;;;;;;;2.56;83.10;99390.94;5068257;28;20268;-74
2022/03/23 02:16:39;;;;;;;14.13;9.80;;;;;;;2.45;83.01;99394.63;5069612;28;20215;-71
2022/03/23 02:19:06;;;;;;;14.57;10.10;;;;;;;2.29;84.09;99396.63;5068958;28;20215;-73
2022/03/23 02:21:35;;;;;;;13.00;9.30;;;;;;;2.22;84.37;99392.41;5065754;28;20684;-72
2022/03/23 02:24:03;;;;;;;12.57;9.50;;;;;;;2.14;84.48;99394.25;5069539;28;20285;-73
2022/03/23 02:26:30;;;;;;;13.87;9.70;;;;;;;2.11;84.40;99402.13;5069776;28;20272;-73
2022/03/23 02:28:57;;;;;;;11.97;9.07;;;;;;;2.04;84.42;99395.31;5068719;28;20238;-73
2022/03/23 02:31:24;;;;;;;14.83;9.17;;;;;;;1.96;84.03;99396.31;5065575;28;20219;-73
2022/03/23 02:33:50;;;;;;;11.43;9.10;;;;;;;1.86;83.83;99392.97;5068949;28;20217;-72
2022/03/23 02:36:17;;;;;;;13.57;9.30;;;;;;;1.84;83.73;99396.47;5069717;28;20212;-74
2022/03/23 02:38:44;;;;;;;14.47;9.90;;;;;;;1.73;84.44;99399.22;5068747;28;20216;-74
2022/03/23 02:41:13;;;;;;;14.67;9.33;;;;;;;1.64;86.62;99393.28;5064141;28;20585;-72
2022/03/23 02:43:39;;;;;;;13.33;9.37;;;;;;;1.69;85.69;99391.47;5068819;28;20578;-72
2022/03/23 02:46:06;;;;;;;13.23;8.90;;;;;;;1.74;85.93;99395.75;5069266;28;20222;-72
2022/03/23 02:48:33;;;;;;;12.70;8.63;;;;;;;1.77;86.51;99395.69;5068783;28;20240;-72
2022/03/23 02:51:00;;;;;;;13.20;9.37;;;;;;;1.68;87.20;99401.06;5065598;28;20218;-72
2022/03/23 03:02:11;;;;;;;14.00;9.97;;;;;;;1.76;87.81;99412.22;5055903;28;20608;-74
2022/03/23 03:04:38;;;;;;;20.03;10.93;;;;;;;1.75;88.61;99418.31;5065223;28;20691;-72
2022/03/23 03:07:05;;;;;;;17.93;12.07;;;;;;;1.79;88.67;99411.31;5065364;28;20227;-73
2022/03/23 03:09:31;;;;;;;17.97;12.23;;;;;;;1.75;89.18;99418.31;5068575;28;20235;-73
2022/03/23 03:11:59;;;;;;;17.73;12.20;;;;;;;1.74;90.22;99419.22;5068627;28;20214;-73
2022/03/23 03:14:25;;;;;;;20.03;12.10;;;;;;;1.67;88.87;99430.56;5065723;28;20294;-73
2022/03/23 03:16:52;;;;;;;15.23;9.90;;;;;;;1.50;87.33;99414.34;5066568;28;20219;-74
2022/03/23 03:19:19;;;;;;;13.27;9.80;;;;;;;1.42;87.01;99418.75;5068516;28;20217;-73
2022/03/23 03:21:46;;;;;;;12.90;8.93;;;;;;;1.37;87.79;99419.69;5063503;28;20207;-73
2022/03/23 03:24:13;;;;;;;11.73;8.93;;;;;;;1.36;88.48;99425.81;5065684;28;20234;-73
2022/03/23 03:26:39;;;;;;;12.40;9.47;;;;;;;1.38;87.30;99427.50;5064835;28;20215;-74
2022/03/23 03:29:07;;;;;;;11.70;8.77;;;;;;;1.28;87.49;99425.03;5059077;28;20246;-73
2022/03/23 03:31:34;;;;;;;11.40;8.30;;;;;;;1.29;87.83;99426.75;5068459;28;20218;-73
2022/03/23 03:34:00;;;;;;;12.17;9.20;;;;;;;1.26;87.87;99422.44;5064389;28;20230;-72
2022/03/23 03:36:27;;;;;;;14.53;9.03;;;;;;;1.24;88.19;99428.56;5064934;28;20218;-72
2022/03/23 03:38:54;;;;;;;11.93;9.00;;;;;;;1.23;88.86;99424.22;5068294;28;20215;-72
2022/03/23 03:41:20;;;;;;;11.27;8.77;;;;;;;1.22;89.49;99420.75;5067943;28;20264;-72
2022/03/23 03:43:48;;;;;;;11.77;9.50;;;;;;;1.24;89.28;99432.00;5066224;28;20214;-72
2022/03/23 03:46:16;;;;;;;12.60;9.27;;;;;;;1.24;89.47;99434.59;5064761;28;20224;-72
2022/03/23 03:48:43;;;;;;;16.50;10.27;;;;;;;1.25;89.71;99425.94;5067910;28;20608;-72
2022/03/23 03:51:10;;;;;;;15.17;10.97;;;;;;;1.34;90.33;99427.53;5068057;28;20214;-73
2022/03/23 03:53:37;;;;;;;14.00;10.90;;;;;;;1.33;90.93;99424.09;5066141;28;20294;-71
2022/03/23 03:56:04;;;;;;;18.10;12.47;;;;;;;1.34;91.34;99431.03;5064526;28;20226;-72
2022/03/23 03:58:31;;;;;;;19.40;12.07;;;;;;;1.31;92.17;99431.06;5066032;28;20704;-74
2022/03/23 04:00:57;;;;;;;20.37;13.00;;;;;;;1.29;93.24;99443.22;5067668;28;20242;-73
2022/03/23 04:03:26;;;;;;;18.13;12.07;;;;;;;1.20;94.32;99443.34;5066399;28;20212;-72
2022/03/23 04:05:52;;;;;;;16.23;11.17;;;;;;;1.23;94.19;99437.25;5063872;28;20219;-72
2022/03/23 04:08:19;;;;;;;16.63;11.90;;;;;;;1.20;94.38;99437.25;5047133;28;20283;-72
2022/03/23 04:10:45;;;;;;;15.77;11.60;;;;;;;1.16;94.77;99431.22;5067506;28;20695;-72
2022/03/23 04:13:12;;;;;;;18.10;11.97;;;;;;;1.15;96.05;99434.72;5066107;28;20699;-73
2022/03/23 04:15:39;;;;;;;19.13;12.50;;;;;;;1.13;96.10;99436.50;5063598;28;20222;-72
2022/03/23 04:18:05;;;;;;;19.83;12.27;;;;;;;1.10;95.38;99431.31;5067617;28;20249;-73
2022/03/23 04:20:33;;;;;;;17.63;12.33;;;;;;;1.12;95.69;99439.09;5069945;28;20301;-72
2022/03/23 04:23:00;;;;;;;22.27;14.33;;;;;;;1.10;96.01;99431.31;5066288;28;20220;-73
2022/03/23 04:25:26;;;;;;;17.97;13.70;;;;;;;1.15;96.76;99434.72;5062254;28;20219;-72
2022/03/23 04:27:55;;;;;;;19.03;13.37;;;;;;;1.19;97.21;99430.34;5066697;28;20703;-72
2022/03/23 04:30:23;;;;;;;19.20;14.83;;;;;;;1.11;98.33;99435.63;5067357;28;20233;-72
2022/03/23 04:32:52;;;;;;;17.80;12.93;;;;;;;1.15;98.59;99439.06;5066393;28;20213;-72
2022/03/23 04:35:19;;;;;;;18.80;13.43;;;;;;;1.23;98.13;99437.25;5063656;28;20581;-72
2022/03/23 04:37:47;;;;;;;19.90;13.67;;;;;;;1.30;97.90;99449.31;5067209;28;20210;-73
2022/03/23 04:40:15;;;;;;;19.80;14.13;;;;;;;1.33;97.71;99438.84;5067360;28;20224;-73
2022/03/23 04:42:43;;;;;;;22.13;13.93;;;;;;;1.34;98.22;99444.03;5066066;28;20217;-74
2022/03/23 04:45:11;;;;;;;20.20;13.77;;;;;;;1.37;98.34;99446.63;5063714;28;20226;-73
2022/03/23 04:47:38;;;;;;;19.53;13.40;;;;;;;1.33;97.65;99449.25;5046216;28;20218;-73
2022/03/23 04:50:08;;;;;;;19.90;13.63;;;;;;;1.28;98.48;99448.47;5066949;28;20295;-71
2022/03/23 04:52:35;;;;;;;20.67;13.57;;;;;;;1.32;98.11;99447.53;5064787;28;20213;-72
2022/03/23 04:55:03;;;;;;;19.13;14.00;;;;;;;1.20;98.52;99451.16;5063712;28;20212;-74
2022/03/23 04:57:30;;;;;;;20.30;14.13;;;;;;;1.21;98.84;99454.59;5066908;28;20215;-73
2022/03/23 04:59:58;;;;;;;20.23;13.73;;;;;;;1.22;98.42;99451.16;5067150;28;20214;-72
2022/03/23 05:02:25;;;;;;;18.63;13.60;;;;;;;1.20;98.28;99453.75;5065645;28;20263;-72
2022/03/23 05:04:51;;;;;;;19.47;13.87;;;;;;;1.17;97.05;99455.53;5063468;28;20230;-72
2022/03/23 05:07:18;;;;;;;21.23;14.87;;;;;;;1.11;95.37;99461.66;5046013;28;20218;-72
2022/03/23 05:09:45;;;;;;;21.77;14.43;;;;;;;1.05;95.97;99463.50;5067139;28;20238;-72
2022/03/23 05:12:13;;;;;;;19.73;13.87;;;;;;;0.95;96.29;99461.84;5065851;28;20219;-71
2022/03/23 05:14:39;;;;;;;19.40;14.47;;;;;;;0.90;96.17;99459.28;5063190;28;20225;-71
2022/03/23 05:17:06;;;;;;;20.33;14.30;;;;;;;0.86;97.38;99468.00;5065203;28;20210;-72
2022/03/23 05:19:32;;;;;;;23.90;14.17;;;;;;;0.79;98.17;99460.25;5064769;28;20221;-72
2022/03/23 05:21:59;;;;;;;21.33;14.07;;;;;;;0.76;99.06;99455.97;5062910;28;20675;-72
2022/03/23 05:24:25;;;;;;;18.77;12.80;;;;;;;0.86;98.01;99462.78;5065547;28;20559;-72
2022/03/23 05:26:52;;;;;;;19.37;13.40;;;;;;;0.93;97.86;99464.44;5070132;28;20212;-73
2022/03/23 05:29:19;;;;;;;20.50;14.33;;;;;;;1.02;98.18;99464.38;5070472;28;20241;-72
2022/03/23 05:31:46;;;;;;;21.70;14.43;;;;;;;1.08;98.26;99468.66;5070338;28;20282;-72
2022/03/23 05:34:12;;;;;;;21.33;13.40;;;;;;;1.15;97.96;99470.31;5066919;28;20225;-73
2022/03/23 05:36:39;;;;;;;17.07;13.03;;;;;;;1.09;97.91;99467.75;5069517;28;20213;-73
2022/03/23 05:39:05;;;;;;;23.53;13.80;;;;;;;1.14;97.27;99474.66;5070558;28;20226;-73
2022/03/23 05:41:32;;;;;;;20.57;13.60;;;;;;;1.11;98.24;99474.69;5070243;28;20212;-72
2022/03/23 05:43:59;;;;;;;22.33;13.90;;;;;;;1.16;96.90;99478.09;5062522;28;20567;-72
2022/03/23 05:46:27;;;;;;;23.17;13.57;;;;;;;1.16;96.45;99483.31;5068676;28;20695;-72
2022/03/23 05:48:54;;;;;;;18.93;13.30;;;;;;;1.12;95.57;99485.97;5070436;28;20234;-72
2022/03/23 05:51:21;;;;;;;20.13;13.50;;;;;;;1.12;95.89;99476.41;5070196;28;20224;-72
2022/03/23 05:53:47;;;;;;;18.77;13.37;;;;;;;1.18;95.49;99480.69;5066260;28;20212;-72
2022/03/23 05:56:14;;;;;;;20.13;13.53;;;;;;;1.22;92.38;99477.19;5068471;28;20580;-72
2022/03/23 05:58:40;;;;;;;18.70;12.33;;;;;;;1.14;91.37;99484.19;5069889;28;20215;-72
2022/03/23 06:01:07;;;;;;;17.70;12.03;;;;;;;1.12;91.33;99489.41;5070112;28;20239;-72
2022/03/23 06:03:35;;;;;;;17.10;11.53;;;;;;;1.08;91.69;99484.25;5066637;28;20216;-71
2022/03/23 06:06:01;;;;;;;18.43;11.87;;;;;;;1.11;92.19;99485.09;5067749;28;20214;-72
2022/03/23 06:08:28;;;;;;;17.20;11.77;;;;;;;1.21;92.92;99489.34;5067979;28;20225;-71
2022/03/23 06:10:55;;;;;;;16.50;11.77;;;;;;;1.27;93.30;99486.66;5070131;28;20245;-71
2022/03/23 06:13:21;;;;;;;18.70;12.67;;;;;;;1.34;93.19;99485.72;5067259;28;20589;-73
2022/03/23 06:15:48;;;;;;;20.57;12.77;;;;;;;1.46;93.49;99485.56;5067119;28;20218;-72
2022/03/23 06:18:14;;;;;;;18.63;13.07;;;;;;;1.60;94.28;99488.88;5069894;28;20218;-71
2022/03/23 06:20:42;;;;;;;20.10;13.87;;;;;;;1.80;94.64;99489.50;5069643;28;20672;-72
2022/03/23 06:23:08;;;;;;;21.47;13.70;;;;;;;1.97;94.66;99495.31;5067127;28;20221;-72
2022/03/23 06:25:36;;;;;;;21.93;14.33;;;;;;;2.10;94.25;99499.50;5066615;28;20225;-73
2022/03/23 06:28:03;;;;;;;23.57;15.37;;;;;;;2.28;94.74;99494.00;5069459;28;20214;-73
2022/03/23 06:30:29;;;;;;;23.17;14.93;;;;;;;2.45;93.96;99492.00;5069797;28;20239;-73
2022/03/23 06:32:56;;;;;;;21.13;15.03;;;;;;;2.57;93.26;99494.44;5066955;28;20585;-72
2022/03/23 06:35:24;;;;;;;23.53;13.47;;;;;;;2.73;92.60;99495.91;5064478;28;20215;-72
2022/03/23 06:37:52;;;;;;;21.47;14.37;;;;;;;2.86;91.17;99502.66;5069601;28;20283;-71
2022/03/23 06:40:18;;;;;;;18.90;14.17;;;;;;;3.00;90.51;99505.88;5069528;28;20207;-71
2022/03/23 06:42:45;;;;;;;22.13;14.13;;;;;;;3.16;89.78;99506.47;5067453;28;20207;-71
2022/03/23 06:45:11;;;;;;;26.83;15.57;;;;;;;3.28;88.62;99508.84;5065740;28;20219;-72
2022/03/23 06:47:38;;;;;;;19.87;14.10;;;;;;;3.38;88.78;99508.69;5069344;28;20225;-72
2022/03/23 06:50:07;;;;;;;21.27;14.83;;;;;;;3.49;88.78;99514.53;5069266;28;20246;-73
2022/03/23 06:52:34;;;;;;;20.60;14.33;;;;;;;3.62;88.11;99521.25;5067272;28;20219;-72
2022/03/23 06:55:02;;;;;;;19.07;13.73;;;;;;;3.71;87.60;99521.06;5065615;28;20223;-72
2022/03/23 06:57:29;;;;;;;19.87;14.47;;;;;;;3.81;87.28;99520.00;5069155;28;20211;-72
2022/03/23 06:59:56;;;;;;;21.47;13.93;;;;;;;3.94;86.83;99521.47;5068829;28;20734;-72
2022/03/23 07:02:22;;;;;;;21.03;14.70;;;;;;;4.05;85.64;99532.59;5065793;28;20243;-72
2022/03/23 07:04:48;;;;;;;21.07;14.53;;;;;;;4.16;85.17;99521.88;5065002;28;20215;-72
2022/03/23 07:07:15;;;;;;;19.80;13.97;;;;;;;4.33;84.50;99528.44;5058217;28;20688;-72
2022/03/23 07:09:41;;;;;;;21.40;14.63;;;;;;;4.46;83.40;99529.88;5068932;28;20262;-72
2022/03/23 07:12:10;;;;;;;21.63;14.73;;;;;;;4.58;83.27;99528.78;5067695;28;20221;-71
2022/03/23 07:14:39;;;;;;;21.70;15.43;;;;;;;4.67;83.12;99526.78;5065182;28;20216;-72
2022/03/23 07:17:06;;;;;;;23.20;14.13;;;;;;;4.80;82.43;99536.06;5044874;28;20238;-72
2022/03/23 07:19:33;;;;;;;21.40;15.53;;;;;;;4.93;81.49;99526.13;5066535;28;20242;-72
2022/03/23 07:22:00;;;;;;;23.97;14.00;;;;;;;5.05;81.32;99534.56;5065092;28;20221;-72
2022/03/23 07:24:27;;;;;;;20.97;14.97;;;;;;;5.19;80.69;99545.56;5064958;28;20216;-72
2022/03/23 07:26:54;;;;;;;20.67;14.70;;;;;;;5.28;79.72;99540.09;5066787;28;20216;-71
2022/03/23 07:29:22;;;;;;;19.63;14.60;;;;;;;5.44;78.96;99544.00;5068429;28;20239;-72
2022/03/23 07:31:50;;;;;;;18.67;13.97;;;;;;;5.58;77.61;99543.66;5067502;28;20212;-73
2022/03/23 07:34:19;;;;;;;19.13;13.93;;;;;;;5.70;78.00;99536.31;5064711;28;20217;-72
2022/03/23 07:36:46;;;;;;;22.97;15.70;;;;;;;5.88;77.67;99538.47;5047372;28;20667;-72
2022/03/23 07:39:15;;;;;;;23.37;15.70;;;;;;;6.04;76.64;99544.97;5068108;28;20217;-71
2022/03/23 07:41:42;;;;;;;22.07;15.00;;;;;;;6.12;76.03;99543.00;5066929;28;20212;-71
2022/03/23 07:44:08;;;;;;;23.10;15.07;;;;;;;6.25;74.51;99533.00;5064535;28;20222;-73
2022/03/23 07:46:36;;;;;;;18.43;13.10;;;;;;;6.37;74.97;99538.75;5046743;28;20215;-73
2022/03/23 07:49:03;;;;;;;22.17;15.30;;;;;;;6.49;74.53;99543.63;5067906;28;20218;-73
2022/03/23 07:51:30;;;;;;;22.47;15.37;;;;;;;6.61;73.26;99543.25;5067021;28;20211;-73
2022/03/23 07:53:56;;;;;;;22.23;15.93;;;;;;;6.71;72.05;99541.22;5062799;28;20220;-73
2022/03/23 07:56:23;;;;;;;23.37;15.77;;;;;;;6.86;71.75;99536.31;5058923;28;20219;-72
2022/03/23 07:58:49;;;;;;;21.93;14.93;;;;;;;7.00;71.51;99530.59;5067873;28;20214;-72
2022/03/23 08:01:16;;;;;;;20.63;14.27;;;;;;;7.12;71.23;99544.19;5067234;28;20251;-72
2022/03/23 08:03:44;;;;;;;21.10;14.60;;;;;;;7.23;69.88;99544.72;5063752;28;20216;-71
2022/03/23 08:06:10;;;;;;;22.67;15.40;;;;;;;7.32;69.50;99540.91;5064912;28;20213;-71
2022/03/23 08:08:36;;;;;;;22.07;14.67;;;;;;;7.45;68.71;99541.28;5066427;28;20582;-71
2022/03/23 08:11:03;;;;;;;20.63;14.77;;;;;;;7.57;68.69;99540.88;5065745;28;20243;-71
2022/03/23 08:13:29;;;;;;;20.67;14.37;;;;;;;7.70;67.05;99541.28;5062592;28;20219;-71
2022/03/23 08:15:56;;;;;;;21.40;14.93;;;;;;;7.81;65.68;99549.66;5064902;28;20242;-71
2022/03/23 08:18:22;;;;;;;22.57;15.60;;;;;;;7.97;65.52;99550.84;5065749;28;20215;-72
2022/03/23 08:20:50;;;;;;;23.60;14.83;;;;;;;8.02;64.75;99538.38;5065328;28;20672;-72
2022/03/23 08:23:19;;;;;;;23.27;15.47;;;;;;;8.17;63.96;99538.66;5062372;28;20219;-70
2022/03/23 08:25:45;;;;;;;19.53;13.90;;;;;;;8.28;63.47;99541.78;5063645;28;20226;-71
2022/03/23 08:28:14;;;;;;;19.70;15.30;;;;;;;8.39;63.29;99541.38;5065323;28;20223;-71
2022/03/23 08:30:41;;;;;;;20.83;15.17;;;;;;;8.39;61.79;99538.75;5065373;28;20596;-72
2022/03/23 08:33:08;;;;;;;23.50;15.40;;;;;;;8.38;62.26;99542.28;5061420;28;20224;-71
2022/03/23 08:35:35;;;;;;;20.33;13.83;;;;;;;8.53;62.24;99546.97;5063736;28;20223;-71
2022/03/23 08:38:03;;;;;;;23.53;15.33;;;;;;;8.67;62.13;99545.50;5065526;28;20215;-72
2022/03/23 08:40:30;;;;;;;20.30;14.93;;;;;;;8.84;61.98;99542.19;5058382;28;20216;-72
2022/03/23 08:42:58;;;;;;;22.97;14.77;;;;;;;9.01;61.37;99550.31;5055955;28;20219;-72
2022/03/23 08:45:25;;;;;;;17.47;14.27;;;;;;;9.13;60.98;99550.63;5059056;28;20212;-72
2022/03/23 08:47:52;;;;;;;21.43;15.30;;;;;;;9.33;59.65;99541.91;5062392;28;20207;-72
2022/03/23 08:50:18;;;;;;;20.93;15.07;;;;;;;9.42;58.83;99541.53;5058989;28;20235;-72
2022/03/23 08:52:45;;;;;;;18.63;15.50;;;;;;;9.42;57.81;99541.53;5058407;28;20220;-72
2022/03/23 08:55:18;;;;;;;23.30;15.67;;;;;;;9.41;57.50;99537.16;5058140;28;20208;-72
2022/03/23 08:57:45;;;;;;;22.13;15.87;;;;;;;9.58;57.24;99545.22;5059858;28;20253;-74
2022/03/23 09:00:12;;;;;;;19.00;14.57;;;;;;;9.60;57.64;99541.59;5061537;28;20212;-72
2022/03/23 09:02:40;;;;;;;20.03;15.10;;;;;;;9.84;57.11;99542.34;5061698;28;20330;-72
2022/03/23 09:05:10;;;;;;;20.57;14.97;;;;;;;9.93;56.62;99534.84;5045300;28;20212;-71
2022/03/23 09:07:37;;;;;;;19.93;15.50;;;;;;;10.00;55.95;99535.44;5042301;28;20291;-71
2022/03/23 09:10:05;;;;;;;19.67;15.10;;;;;;;10.13;55.22;99536.63;5055343;28;20307;-71
2022/03/23 09:12:33;;;;;;;22.50;15.73;;;;;;;10.17;54.51;99531.16;5052809;28;20216;-72
2022/03/23 09:15:00;;;;;;;20.87;15.47;;;;;;;10.26;54.61;99529.84;5054550;28;20211;-71
2022/03/23 09:17:27;;;;;;;22.47;16.03;;;;;;;10.57;55.86;99527.50;5054931;28;20596;-71
2022/03/23 09:19:54;;;;;;;20.03;15.40;;;;;;;10.75;55.74;99532.78;5054505;28;20208;-71
2022/03/23 09:22:21;;;;;;;22.53;16.50;;;;;;;10.97;54.52;99529.94;5055218;28;20212;-71
2022/03/23 09:24:48;;;;;;;21.13;15.77;;;;;;;11.09;54.04;99521.41;5055038;28;20220;-71
2022/03/23 09:27:14;;;;;;;19.87;15.30;;;;;;;11.16;52.92;99528.13;5054250;28;20212;-71
2022/03/23 09:29:42;;;;;;;20.60;15.63;;;;;;;11.27;53.32;99524.03;5054956;28;20217;-70
2022/03/23 09:32:12;;;;;;;22.20;15.77;;;;;;;11.34;51.33;99521.91;5054600;28;20291;-72
2022/03/23 09:34:38;;;;;;;21.30;14.77;;;;;;;11.42;51.37;99530.31;5054172;28;20292;-72
2022/03/23 09:39:50;;;;;;;21.50;14.93;;;;;;;11.74;49.63;99522.47;5049895;28;20348;-72
2022/03/23 09:42:18;;;;;;;19.73;15.37;;;;;;;11.82;47.59;99519.44;5053659;28;20215;-70
2022/03/23 09:44:47;;;;;;;22.50;15.47;;;;;;;11.65;47.84;99522.09;5052574;28;20222;-72
2022/03/23 09:47:13;;;;;;;19.37;14.43;;;;;;;11.84;48.63;99517.53;5054199;28;20208;-72
2022/03/23 09:49:40;;;;;;;22.07;16.07;;;;;;;12.06;50.31;99507.53;5053579;28;20212;-71
2022/03/23 09:52:07;;;;;;;18.23;14.67;;;;;;;12.26;49.70;99512.59;5055093;28;20210;-71
2022/03/23 09:54:33;;;;;;;19.53;15.17;;;;;;;12.45;46.44;99515.97;5047801;28;20222;-72
2022/03/23 09:57:00;;;;;;;16.97;14.43;;;;;;;12.55;45.06;99506.56;5053912;28;20210;-73
2022/03/23 09:59:26;;;;;;;17.73;14.73;;;;;;;12.59;45.22;99513.44;5054407;28;20575;-72
2022/03/23 10:02:26;;;;;;;18.00;13.57;;;;;;;12.69;43.36;99506.66;5054669;28;20249;-72
2022/03/23 10:05:28;;;;;;;17.87;14.27;;;;;;;12.88;42.03;99515.28;5045787;28;20704;-71
2022/03/23 10:08:13;;;;;;;15.67;13.23;;;;;;;12.91;41.32;99510.66;5051653;28;20222;-71
2022/03/23 10:11:29;;;;;;;17.17;12.43;;;;;;;12.95;41.48;99506.94;5053093;28;20239;-72
2022/03/23 10:14:28;;;;;;;18.40;12.77;;;;;;;13.20;39.11;99503.75;5055495;28;20223;-70
2022/03/23 10:17:30;;;;;;;14.77;11.90;;;;;;;13.22;37.55;99504.50;5044686;28;20218;-70
2022/03/23 10:19:57;;;;;;;15.43;12.37;;;;;;;13.21;37.46;99497.47;5056171;28;20215;-71
2022/03/23 10:22:27;;;;;;;16.53;12.47;;;;;;;13.28;38.26;99497.03;5055244;28;20302;-72
2022/03/23 10:24:55;;;;;;;16.93;13.10;;;;;;;13.58;37.62;99486.38;5055067;28;20234;-72
2022/03/23 10:27:24;;;;;;;14.47;11.93;;;;;;;13.91;36.73;99490.53;5055157;28;20231;-72
2022/03/23 10:29:52;;;;;;;13.90;12.07;;;;;;;13.97;36.67;99491.94;5054419;28;20688;-71
2022/03/23 10:32:21;;;;;;;15.30;13.37;;;;;;;14.00;36.74;99484.63;5053070;28;20302;-72
2022/03/23 10:34:49;;;;;;;15.60;11.37;;;;;;;14.03;35.87;99483.56;5054817;28;20216;-73
2022/03/23 10:37:25;;;;;;;15.30;12.10;;;;;;;13.98;35.64;99480.34;5054207;28;20265;-72
2022/03/23 10:39:52;;;;;;;14.93;12.70;;;;;;;14.10;37.42;99484.91;5052905;28;20452;-72
2022/03/23 10:42:22;;;;;;;14.17;12.23;;;;;;;14.03;36.47;99473.81;5054887;28;20212;-72
2022/03/23 10:44:49;;;;;;;14.80;12.63;;;;;;;13.95;35.71;99475.22;5054881;28;20214;-72
2022/03/23 10:47:27;;;;;;;15.93;12.30;;;;;;;14.04;35.67;99479.97;5055709;28;20223;-74
2022/03/23 10:49:53;;;;;;;13.93;11.57;;;;;;;14.12;35.83;99467.06;5054713;28;20573;-74
2022/03/23 10:52:20;;;;;;;14.70;12.23;;;;;;;14.41;37.51;99479.41;5054854;28;20608;-72
2022/03/23 10:54:55;;;;;;;15.00;11.73;;;;;;;14.59;36.80;99471.13;5054792;28;20626;-74
2022/03/23 10:57:43;;;;;;;16.87;12.67;;;;;;;14.85;37.64;99461.44;5053452;28;20218;-75
2022/03/23 11:00:14;;;;;;;15.27;12.57;;;;;;;15.02;35.92;99462.03;5052898;28;20218;-75
2022/03/23 11:02:46;;;;;;;12.97;11.57;;;;;;;15.29;34.16;99459.34;5054884;28;20601;-72
2022/03/23 11:05:13;;;;;;;14.17;11.67;;;;;;;15.18;33.41;99445.91;5056734;28;20225;-72
2022/03/23 11:07:40;;;;;;;13.33;11.17;;;;;;;15.13;32.87;99448.00;5045951;28;20217;-73
2022/03/23 11:16:01;;;;;;;14.10;11.27;;;;;;;15.36;31.12;99440.22;5055507;28;20215;-72
2022/03/23 11:18:28;;;;;;;11.20;9.67;;;;;;;15.45;29.99;99444.09;5055578;28;20215;-73
2022/03/23 11:20:56;;;;;;;13.23;10.73;;;;;;;15.56;30.79;99447.72;5055633;28;20219;-72
2022/03/23 11:23:24;;;;;;;11.27;9.83;;;;;;;15.47;30.05;99442.16;5054504;28;20208;-72
2022/03/23 11:25:53;;;;;;;18.73;10.60;;;;;;;15.51;30.61;99438.34;5052675;28;20216;-73
2022/03/23 11:28:21;;;;;;;12.60;10.60;;;;;;;15.39;29.24;99436.50;5054032;28;20381;-72
2022/03/23 11:30:49;;;;;;;12.50;10.10;;;;;;;15.43;29.79;99430.00;5053058;28;20239;-72
2022/03/23 11:33:19;;;;;;;11.80;10.37;;;;;;;15.42;30.30;99430.94;5053916;28;20619;-72
2022/03/23 11:35:49;;;;;;;11.10;9.77;;;;;;;15.47;30.11;99428.84;5053622;28;20220;-72
2022/03/23 11:38:18;;;;;;;9.10;8.00;;;;;;;15.84;30.05;99428.00;5054254;28;20222;-73
2022/03/23 11:40:45;;;;;;;11.73;9.03;;;;;;;15.96;29.35;99424.47;5050666;28;20212;-72
2022/03/23 11:43:12;;;;;;;9.70;8.77;;;;;;;15.98;29.79;99423.41;5053607;28;20590;-73
2022/03/23 11:45:43;;;;;;;11.17;10.07;;;;;;;16.08;30.10;99419.97;5053526;28;20223;-73